Time;durP1;ratioP1;P1;durP2;ratioP2;P2;SDS_P1;SDS_P2;PMS_P1;PMS_P2;Temp;Humidity;BMP_temperature;BMP_pressure;BME280_temperature;BME280_humidity;BME280_pressure;Samples;Min_cycle;Max_cycle;Signal;HPM_P1;HPM_P2
2021/07/09 00:01:06;;;;;;;17.05;10.77;;;691.30;1894.40;;;;;;5071651;28;20031;-77
2021/07/09 00:03:33;;;;;;;16.67;10.82;;;691.20;1920.00;;;;;;5061714;28;20032;-77
2021/07/09 00:06:00;;;;;;;16.60;11.48;;;666.40;1945.60;;;;;;5055522;28;20025;-78
2021/07/09 00:08:25;;;;;;;10.77;9.73;;;666.40;1945.60;;;;;;5055256;28;20021;-76
2021/07/09 00:10:51;;;;;;;13.38;10.40;;;666.20;1945.60;;;;;;5055250;28;20032;-79
2021/07/09 00:13:17;;;;;;;14.77;12.18;;;666.30;1945.60;;;;;;5055165;28;20029;-79
2021/07/09 00:15:43;;;;;;;15.80;11.43;;;666.40;1945.60;;;;;;5055132;28;20074;-77
2021/07/09 00:18:08;;;;;;;18.15;12.55;;;666.40;1945.60;;;;;;5055052;28;20036;-78
2021/07/09 00:20:34;;;;;;;20.20;11.02;;;666.40;1945.60;;;;;;5055796;28;20025;-76
2021/07/09 00:23:00;;;;;;;16.55;10.82;;;666.40;1945.60;;;;;;5054743;28;20469;-79
2021/07/09 00:25:26;;;;;;;13.75;11.13;;;666.40;1945.60;;;;;;5054821;28;20461;-77
2021/07/09 00:27:51;;;;;;;17.40;11.75;;;666.30;1971.20;;;;;;5056174;28;20048;-79
2021/07/09 00:30:17;;;;;;;16.65;11.65;;;666.30;1971.20;;;;;;5056462;28;20033;-80
2021/07/09 00:32:43;;;;;;;11.77;10.57;;;666.20;1971.20;;;;;;5055355;28;20170;-79
2021/07/09 00:35:10;;;;;;;15.32;12.35;;;666.20;1971.20;;;;;;5054840;28;20460;-79
2021/07/09 00:37:35;;;;;;;14.05;10.48;;;666.10;1996.80;;;;;;5054521;28;20029;-78
2021/07/09 00:40:06;;;;;;;14.23;10.68;;;666.10;1996.80;;;;;;5055879;28;20048;-78
2021/07/09 00:42:32;;;;;;;14.95;11.13;;;666.10;1996.80;;;;;;5054456;28;20112;-80
2021/07/09 00:44:58;;;;;;;13.25;11.82;;;666.00;2022.40;;;;;;5054375;28;20116;-77
2021/07/09 00:47:24;;;;;;;12.35;10.88;;;666.00;2022.40;;;;;;5054395;28;20420;-80
2021/07/09 00:49:49;;;;;;;17.13;12.05;;;666.00;2022.40;;;;;;5054177;28;20051;-79
2021/07/09 00:52:16;;;;;;;12.77;10.52;;;666.00;2022.40;;;;;;5054152;28;20061;-81
2021/07/09 00:54:42;;;;;;;12.50;10.52;;;666.00;2022.40;;;;;;5053631;28;20422;-76
2021/07/09 00:57:10;;;;;;;15.13;10.85;;;666.00;2022.40;;;;;;5054486;28;20120;-78
2021/07/09 00:59:36;;;;;;;17.63;11.13;;;665.70;2048.00;;;;;;5054190;28;20025;-77
2021/07/09 01:02:02;;;;;;;14.93;12.82;;;665.70;2048.00;;;;;;5054185;28;20527;-75
2021/07/09 01:04:28;;;;;;;15.05;11.48;;;665.70;2048.00;;;;;;5055461;28;20033;-77
2021/07/09 01:06:54;;;;;;;14.77;10.65;;;665.70;2073.60;;;;;;5054182;28;20116;-77
2021/07/09 01:09:20;;;;;;;13.50;11.80;;;665.70;2073.60;;;;;;5055450;28;20079;-80
2021/07/09 01:11:50;;;;;;;17.45;11.93;;;665.60;2099.20;;;;;;5054082;28;20451;-77
2021/07/09 01:14:17;;;;;;;17.58;11.98;;;640.90;2073.60;;;;;;5053318;28;20420;-79
2021/07/09 01:16:43;;;;;;;15.35;10.70;;;640.90;2099.20;;;;;;5054000;28;20059;-79
2021/07/09 01:19:16;;;;;;;13.52;11.07;;;640.70;2099.20;;;;;;5053824;28;20451;-79
2021/07/09 01:21:43;;;;;;;14.35;12.25;;;640.70;2099.20;;;;;;5053976;28;20378;-77
2021/07/09 01:24:10;;;;;;;15.18;12.70;;;640.70;2099.20;;;;;;5053862;28;20029;-78
2021/07/09 01:26:39;;;;;;;18.02;11.75;;;640.70;2124.80;;;;;;5053758;28;20025;-76
2021/07/09 01:29:06;;;;;;;14.50;12.23;;;640.60;2124.80;;;;;;5053732;28;20029;-79
2021/07/09 01:31:32;;;;;;;14.13;11.43;;;640.50;2124.80;;;;;;5053730;28;20551;-78
2021/07/09 01:33:58;;;;;;;16.83;11.65;;;640.50;2150.40;;;;;;5053447;28;20087;-77
2021/07/09 01:36:24;;;;;;;14.20;12.50;;;640.40;2176.00;;;;;;5053590;28;20032;-78
2021/07/09 01:38:50;;;;;;;17.65;11.80;;;640.30;2176.00;;;;;;5054676;28;20052;-79
2021/07/09 01:41:16;;;;;;;25.30;12.80;;;640.40;2150.40;;;;;;5053478;28;20052;-77
2021/07/09 01:43:46;;;;;;;16.98;12.88;;;640.40;2176.00;;;;;;5053269;28;20017;-78
2021/07/09 01:46:11;;;;;;;20.15;12.15;;;640.40;2176.00;;;;;;5053569;28;20473;-80
2021/07/09 01:48:37;;;;;;;16.52;11.60;;;640.30;2176.00;;;;;;5052781;28;20036;-79
2021/07/09 01:51:03;;;;;;;12.85;11.57;;;640.30;2176.00;;;;;;5052587;28;20057;-77
2021/07/09 01:53:30;;;;;;;13.73;10.98;;;640.20;2176.00;;;;;;5054566;28;20025;-78
2021/07/09 01:55:55;;;;;;;16.77;10.98;;;640.20;2201.60;;;;;;5053277;28;20021;-78
2021/07/09 01:58:22;;;;;;;16.52;10.88;;;640.10;2201.60;;;;;;5053367;28;20074;-78
2021/07/09 02:00:49;;;;;;;17.70;11.40;;;640.10;2201.60;;;;;;5052595;28;20064;-79
2021/07/09 02:03:15;;;;;;;15.63;11.95;;;640.10;2227.20;;;;;;5053082;28;20063;-80
2021/07/09 02:05:41;;;;;;;21.52;12.20;;;640.00;2227.20;;;;;;5052892;28;20021;-77
2021/07/09 02:08:07;;;;;;;13.10;11.65;;;615.30;2227.20;;;;;;5052782;28;20370;-78
2021/07/09 02:10:38;;;;;;;14.50;11.23;;;640.00;2252.80;;;;;;5052708;28;20025;-79
2021/07/09 02:13:04;;;;;;;18.00;12.80;;;640.00;2227.20;;;;;;5052792;28;20036;-79
2021/07/09 02:15:33;;;;;;;13.95;12.02;;;640.00;2252.80;;;;;;5052819;28;20017;-79
2021/07/09 02:17:59;;;;;;;17.70;14.32;;;615.30;2252.80;;;;;;5052866;28;20025;-79
2021/07/09 02:20:27;;;;;;;16.55;12.35;;;615.30;2278.40;;;;;;5052404;28;20027;-79
2021/07/09 02:22:58;;;;;;;16.27;11.52;;;615.20;2278.40;;;;;;5052458;28;20095;-80
2021/07/09 02:25:25;;;;;;;16.15;13.15;;;615.30;2252.80;;;;;;5052746;28;20033;-79
2021/07/09 02:27:52;;;;;;;13.93;10.98;;;615.30;2252.80;;;;;;5053145;28;20031;-77
2021/07/09 02:30:20;;;;;;;16.35;11.48;;;615.30;2252.80;;;;;;5053391;28;20032;-79
2021/07/09 02:32:46;;;;;;;12.68;10.50;;;615.30;2252.80;;;;;;5053180;28;20486;-78
2021/07/09 02:35:18;;;;;;;15.23;12.65;;;615.30;2252.80;;;;;;5052636;28;20465;-78
2021/07/09 02:37:46;;;;;;;16.53;11.73;;;615.30;2252.80;;;;;;5051964;28;20488;-76
2021/07/09 02:40:14;;;;;;;15.07;12.05;;;615.30;2252.80;;;;;;5053715;28;20098;-78
2021/07/09 02:42:42;;;;;;;17.05;12.90;;;615.30;2252.80;;;;;;5052010;28;20472;-79
2021/07/09 02:45:09;;;;;;;17.30;11.80;;;640.00;2252.80;;;;;;5052173;28;20025;-79
2021/07/09 02:47:38;;;;;;;16.60;12.63;;;615.30;2227.20;;;;;;5053866;28;20032;-79
2021/07/09 02:50:07;;;;;;;17.42;12.73;;;615.30;2227.20;;;;;;5056872;28;20137;-78
2021/07/09 02:52:32;;;;;;;22.38;15.27;;;615.30;2227.20;;;;;;5063862;28;20055;-80
2021/07/09 02:54:58;;;;;;;19.38;13.15;;;615.10;2252.80;;;;;;5062660;28;20056;-80
2021/07/09 02:57:24;;;;;;;23.95;14.30;;;615.10;2278.40;;;;;;5063540;28;20361;-79
2021/07/09 02:59:50;;;;;;;17.58;13.32;;;615.00;2278.40;;;;;;5061041;28;20354;-79
2021/07/09 03:02:15;;;;;;;16.15;12.43;;;614.80;2304.00;;;;;;5066226;28;20388;-80
2021/07/09 03:04:41;;;;;;;16.77;12.82;;;614.80;2304.00;;;;;;5069410;28;20029;-78
2021/07/09 03:07:07;;;;;;;19.88;12.77;;;614.80;2304.00;;;;;;5052756;28;20017;-81
2021/07/09 03:09:32;;;;;;;19.23;12.70;;;614.80;2329.60;;;;;;5052372;28;20029;-77
2021/07/09 03:11:58;;;;;;;19.17;11.80;;;614.80;2278.40;;;;;;5053021;28;20067;-80
2021/07/09 03:14:24;;;;;;;21.70;12.60;;;614.70;2329.60;;;;;;5052313;28;20053;-77
2021/07/09 03:16:49;;;;;;;21.48;12.98;;;614.70;2329.60;;;;;;5054079;28;20064;-78
2021/07/09 03:19:15;;;;;;;18.23;13.13;;;614.70;2329.60;;;;;;5052286;28;20027;-80
2021/07/09 03:21:41;;;;;;;21.70;12.68;;;614.70;2329.60;;;;;;5051794;28;20071;-77
2021/07/09 03:24:07;;;;;;;20.05;12.55;;;614.80;2329.60;;;;;;5052304;28;20028;-82
2021/07/09 03:26:33;;;;;;;21.25;12.98;;;614.80;2329.60;;;;;;5051855;28;20052;-80
2021/07/09 03:29:00;;;;;;;21.40;14.13;;;614.80;2304.00;;;;;;5051960;28;20025;-79
2021/07/09 03:31:27;;;;;;;17.23;12.93;;;614.80;2329.60;;;;;;5051280;28;20071;-78
2021/07/09 03:33:54;;;;;;;20.00;12.98;;;614.80;2304.00;;;;;;5051888;28;20025;-77
2021/07/09 03:36:20;;;;;;;19.65;14.60;;;614.90;2304.00;;;;;;5051891;28;20047;-81
2021/07/09 03:38:47;;;;;;;16.38;13.73;;;615.00;2304.00;;;;;;5055021;28;20036;-78
2021/07/09 03:41:13;;;;;;;16.42;12.82;;;615.10;2278.40;;;;;;5055344;28;20499;-80
2021/07/09 03:43:38;;;;;;;21.15;13.88;;;614.90;2304.00;;;;;;5055149;28;20032;-79
2021/07/09 03:46:04;;;;;;;20.08;13.48;;;615.00;2304.00;;;;;;5055726;28;20029;-77
2021/07/09 03:48:30;;;;;;;17.88;14.00;;;615.00;2304.00;;;;;;5055541;28;20108;-78
2021/07/09 03:50:56;;;;;;;18.83;13.50;;;615.00;2304.00;;;;;;5054815;28;20041;-78
2021/07/09 03:53:22;;;;;;;20.75;13.40;;;615.00;2304.00;;;;;;5055435;28;20029;-78
2021/07/09 03:55:47;;;;;;;21.70;13.95;;;615.00;2304.00;;;;;;5055024;28;20120;-78
2021/07/09 03:58:13;;;;;;;27.13;15.82;;;615.00;2304.00;;;;;;5056402;28;20124;-79
2021/07/09 04:00:39;;;;;;;25.77;16.75;;;615.00;2304.00;;;;;;5056659;28;20053;-78
2021/07/09 04:03:05;;;;;;;17.77;14.57;;;615.00;2304.00;;;;;;5055023;28;20029;-77
2021/07/09 04:05:30;;;;;;;19.80;15.57;;;615.00;2304.00;;;;;;5055178;28;20072;-78
2021/07/09 04:07:56;;;;;;;19.60;14.65;;;614.90;2329.60;;;;;;5055374;28;20133;-78
2021/07/09 04:10:22;;;;;;;17.70;13.07;;;614.90;2304.00;;;;;;5055008;28;20021;-78
2021/07/09 04:12:49;;;;;;;15.52;12.18;;;614.80;2355.20;;;;;;5055108;28;20087;-80
2021/07/09 04:15:15;;;;;;;16.58;13.82;;;614.70;2355.20;;;;;;5055088;28;20056;-78
2021/07/09 04:17:40;;;;;;;18.20;14.50;;;614.70;2329.60;;;;;;5054860;28;20025;-80
2021/07/09 04:20:08;;;;;;;22.15;13.70;;;614.70;2329.60;;;;;;5055146;28;20025;-77
2021/07/09 04:22:33;;;;;;;17.33;12.48;;;614.70;2355.20;;;;;;5054803;28;20026;-79
2021/07/09 04:24:59;;;;;;;15.18;12.93;;;614.70;2380.80;;;;;;5055878;28;20036;-78
2021/07/09 04:27:25;;;;;;;17.05;12.90;;;614.70;2380.80;;;;;;5054599;28;20044;-79
2021/07/09 04:29:51;;;;;;;16.90;12.70;;;614.70;2380.80;;;;;;5054390;28;20037;-77
2021/07/09 04:32:17;;;;;;;17.88;13.30;;;614.70;2380.80;;;;;;5055819;28;20234;-79
2021/07/09 04:34:42;;;;;;;16.30;13.70;;;614.70;2380.80;;;;;;5055936;28;20025;-78
2021/07/09 04:37:09;;;;;;;19.63;14.32;;;614.80;2380.80;;;;;;5054207;28;20081;-75
2021/07/09 04:39:36;;;;;;;17.98;14.35;;;614.90;2380.80;;;;;;5054469;28;20499;-77
2021/07/09 04:42:03;;;;;;;17.50;11.70;;;615.00;2355.20;;;;;;5054474;28;20025;-80
2021/07/09 04:44:29;;;;;;;15.70;13.55;;;615.00;2355.20;;;;;;5054539;28;20017;-79
2021/07/09 04:46:54;;;;;;;14.55;12.63;;;615.10;2355.20;;;;;;5054189;28;20120;-79
2021/07/09 04:49:20;;;;;;;20.48;13.23;;;615.10;2355.20;;;;;;5054210;28;20057;-79
2021/07/09 04:51:46;;;;;;;16.55;12.77;;;615.20;2355.20;;;;;;5051329;28;20060;-79
2021/07/09 04:54:12;;;;;;;14.70;11.88;;;615.30;2329.60;;;;;;5051039;28;20144;-79
2021/07/09 04:56:37;;;;;;;20.65;13.23;;;615.30;2329.60;;;;;;5053863;28;20029;-78
2021/07/09 04:59:03;;;;;;;16.00;12.45;;;640.00;2304.00;;;;;;5055164;28;20037;-79
2021/07/09 05:01:29;;;;;;;17.17;12.38;;;640.10;2329.60;;;;;;5053459;28;20033;-79
2021/07/09 05:03:55;;;;;;;18.92;12.85;;;640.10;2329.60;;;;;;5039362;28;20045;-78
2021/07/09 05:06:21;;;;;;;20.92;12.98;;;640.20;2329.60;;;;;;5034205;28;20029;-78
2021/07/09 05:08:47;;;;;;;19.35;13.65;;;640.20;2329.60;;;;;;5050905;28;20022;-79
2021/07/09 05:11:13;;;;;;;15.10;13.18;;;640.30;2304.00;;;;;;5033826;28;20366;-78
2021/07/09 05:13:39;;;;;;;17.50;12.73;;;640.40;2304.00;;;;;;5034102;28;20127;-80
2021/07/09 05:16:08;;;;;;;17.38;12.43;;;640.40;2252.80;;;;;;5035136;28;20075;-78
2021/07/09 05:18:34;;;;;;;21.38;13.82;;;640.50;2252.80;;;;;;5034257;28;20033;-80
2021/07/09 05:21:01;;;;;;;18.77;12.48;;;640.60;2201.60;;;;;;5033822;28;20029;-80
2021/07/09 05:23:27;;;;;;;19.27;12.77;;;640.70;2201.60;;;;;;5034330;28;20088;-78
2021/07/09 05:25:54;;;;;;;17.38;13.50;;;640.80;2201.60;;;;;;5034294;28;20030;-80
2021/07/09 05:28:20;;;;;;;18.38;14.00;;;640.90;2201.60;;;;;;5034183;28;20033;-78
2021/07/09 05:30:46;;;;;;;19.77;13.23;;;665.70;2201.60;;;;;;5033842;28;20143;-80
2021/07/09 05:33:15;;;;;;;17.42;14.27;;;665.70;2176.00;;;;;;5046618;28;20183;-80
2021/07/09 05:35:43;;;;;;;15.55;13.15;;;665.80;2150.40;;;;;;5053728;28;20179;-78
2021/07/09 05:38:09;;;;;;;19.52;14.23;;;665.80;2150.40;;;;;;5053546;28;20056;-78
2021/07/09 05:40:35;;;;;;;14.52;12.77;;;666.10;2150.40;;;;;;5055099;28;20025;-80
2021/07/09 05:43:01;;;;;;;12.65;11.30;;;666.20;2124.80;;;;;;5052950;28;20044;-78
2021/07/09 05:45:30;;;;;;;17.33;11.98;;;666.30;2099.20;;;;;;5053868;28;20025;-79
2021/07/09 05:47:56;;;;;;;16.67;10.98;;;666.10;2073.60;;;;;;5053531;28;20108;-77
2021/07/09 05:50:22;;;;;;;15.65;11.93;;;666.10;2073.60;;;;;;5053733;28;20021;-76
2021/07/09 05:52:48;;;;;;;14.80;10.18;;;666.20;2073.60;;;;;;5053268;28;20065;-77
2021/07/09 05:55:15;;;;;;;14.27;10.98;;;666.30;2073.60;;;;;;5054653;28;20104;-77
2021/07/09 05:57:41;;;;;;;12.90;10.57;;;666.50;2048.00;;;;;;5053379;28;20024;-76
2021/07/09 06:00:09;;;;;;;16.25;10.63;;;691.20;2022.40;;;;;;5036609;28;20029;-77
2021/07/09 06:02:35;;;;;;;14.68;10.52;;;691.30;2022.40;;;;;;5054037;28;20116;-84
2021/07/09 06:05:01;;;;;;;11.77;10.48;;;691.40;1996.80;;;;;;5045903;28;20034;-79
2021/07/09 06:07:27;;;;;;;16.40;10.98;;;691.50;1996.80;;;;;;5034548;28;20037;-78
2021/07/09 06:09:54;;;;;;;12.40;10.27;;;691.60;1996.80;;;;;;5036190;28;20029;-82
2021/07/09 06:12:19;;;;;;;14.73;10.25;;;691.70;1996.80;;;;;;5033388;28;20037;-80
2021/07/09 06:14:45;;;;;;;13.65;10.95;;;691.80;1971.20;;;;;;5033526;28;20069;-78
2021/07/09 06:17:11;;;;;;;12.70;10.40;;;692.00;1971.20;;;;;;5033851;28;20021;-78
2021/07/09 06:19:37;;;;;;;12.23;10.95;;;692.10;1945.60;;;;;;5034108;28;20064;-78
2021/07/09 06:22:03;;;;;;;14.80;10.88;;;692.10;1920.00;;;;;;5032793;28;20144;-80
2021/07/09 06:24:29;;;;;;;11.20;9.77;;;716.80;1920.00;;;;;;5034269;28;20112;-77
2021/07/09 06:26:55;;;;;;;13.25;10.82;;;717.00;1945.60;;;;;;5033107;28;20030;-79
2021/07/09 06:29:21;;;;;;;10.43;9.40;;;717.00;1868.80;;;;;;5034675;28;20033;-78
2021/07/09 06:31:47;;;;;;;11.00;9.90;;;717.10;1868.80;;;;;;5033785;28;20033;-79
2021/07/09 06:34:12;;;;;;;13.68;11.02;;;717.10;1843.20;;;;;;5033381;28;20070;-77
2021/07/09 06:36:38;;;;;;;12.65;9.52;;;717.20;1843.20;;;;;;5034336;28;20029;-79
2021/07/09 06:39:04;;;;;;;11.18;9.38;;;717.20;1843.20;;;;;;5038526;28;20528;-80
2021/07/09 06:41:30;;;;;;;13.13;10.52;;;717.20;1843.20;;;;;;5050155;28;20025;-77
2021/07/09 06:43:57;;;;;;;12.93;9.38;;;717.30;1868.80;;;;;;5037688;28;20033;-77
2021/07/09 06:46:23;;;;;;;14.55;10.25;;;717.30;1843.20;;;;;;5032865;28;20469;-76
2021/07/09 06:48:49;;;;;;;11.65;9.57;;;717.50;1792.00;;;;;;5035463;28;20029;-80
2021/07/09 06:51:15;;;;;;;11.13;9.05;;;717.50;1817.60;;;;;;5052256;28;20059;-83
2021/07/09 06:53:40;;;;;;;10.13;9.07;;;717.60;1792.00;;;;;;5044402;28;20052;-77
2021/07/09 06:56:07;;;;;;;14.43;10.05;;;717.60;1792.00;;;;;;5037706;28;20021;-76
2021/07/09 06:58:32;;;;;;;10.75;9.63;;;717.70;1792.00;;;;;;5040094;28;20033;-77
2021/07/09 07:00:58;;;;;;;15.68;9.68;;;742.40;1817.60;;;;;;5053670;28;20374;-84
2021/07/09 07:03:24;;;;;;;11.55;9.68;;;742.40;1792.00;;;;;;5061401;28;20092;-82
2021/07/09 07:05:50;;;;;;;11.32;9.15;;;742.50;1792.00;;;;;;5041356;28;20041;-85
2021/07/09 07:08:24;;;;;;;13.05;9.85;;;742.50;1817.60;;;;;;5033075;28;20489;-82
2021/07/09 07:10:51;;;;;;;12.90;9.90;;;742.60;1792.00;;;;;;5033145;28;20473;-77
2021/07/09 07:13:19;;;;;;;10.60;9.32;;;742.60;1817.60;;;;;;5034971;28;20109;-79
2021/07/09 07:15:44;;;;;;;10.85;8.65;;;742.80;1792.00;;;;;;5056387;28;20025;-81
2021/07/09 07:18:12;;;;;;;13.32;10.45;;;742.80;1792.00;;;;;;5039823;28;20029;-85
2021/07/09 07:20:41;;;;;;;11.55;9.70;;;742.90;1766.40;;;;;;5038010;28;20029;-80
2021/07/09 07:23:08;;;;;;;12.15;8.98;;;743.00;1766.40;;;;;;5036357;28;20452;-83
2021/07/09 07:25:35;;;;;;;15.65;8.85;;;743.10;1740.80;;;;;;5036668;28;20034;-78
2021/07/09 07:28:01;;;;;;;13.00;10.50;;;743.10;1740.80;;;;;;5036548;28;20029;-82
2021/07/09 07:30:30;;;;;;;11.70;9.70;;;743.30;1740.80;;;;;;5036472;28;20112;-82
2021/07/09 07:32:55;;;;;;;11.88;8.77;;;743.30;1715.20;;;;;;5041020;28;20047;-80
2021/07/09 07:35:24;;;;;;;9.98;8.98;;;768.10;1689.60;;;;;;5056478;28;20085;-79
2021/07/09 07:37:50;;;;;;;12.52;9.02;;;768.10;1689.60;;;;;;5073219;28;20067;-81
2021/07/09 07:40:17;;;;;;;11.25;9.35;;;768.20;1689.60;;;;;;5057997;28;20097;-81
2021/07/09 07:42:43;;;;;;;14.15;10.25;;;768.20;1664.00;;;;;;5057533;28;20032;-83
2021/07/09 07:45:09;;;;;;;9.70;8.57;;;768.40;1689.60;;;;;;5042470;28;20079;-81
2021/07/09 07:47:35;;;;;;;10.85;9.77;;;768.40;1664.00;;;;;;5036382;28;20029;-85
2021/07/09 07:50:02;;;;;;;11.77;9.10;;;768.60;1664.00;;;;;;5038981;28;20032;-80
2021/07/09 07:52:27;;;;;;;12.23;9.63;;;768.70;1638.40;;;;;;5038520;28;20144;-84
2021/07/09 07:54:53;;;;;;;10.20;8.85;;;768.90;1638.40;;;;;;5039463;28;20068;-83
2021/07/09 07:57:20;;;;;;;8.73;7.82;;;793.70;1612.80;;;;;;5057221;28;20472;-81
2021/07/09 07:59:45;;;;;;;12.13;9.18;;;794.00;1612.80;;;;;;5056393;28;20120;-84
2021/07/09 08:02:12;;;;;;;10.27;7.97;;;794.10;1612.80;;;;;;5040577;28;20126;-82
2021/07/09 08:04:38;;;;;;;8.88;7.97;;;794.20;1587.20;;;;;;5038270;28;20033;-80
2021/07/09 08:07:05;;;;;;;15.98;8.00;;;794.30;1561.60;;;;;;5041292;28;20039;-83
2021/07/09 08:09:31;;;;;;;9.43;8.32;;;794.40;1561.60;;;;;;5043934;28;20061;-82
2021/07/09 08:11:58;;;;;;;9.60;7.20;;;794.50;1536.00;;;;;;5049565;28;20037;-81
2021/07/09 08:14:24;;;;;;;9.27;8.18;;;794.40;1561.60;;;;;;5045182;28;20017;-84
2021/07/09 08:16:51;;;;;;;10.15;7.90;;;794.30;1536.00;;;;;;5052982;28;20067;-86
2021/07/09 08:19:21;;;;;;;12.32;7.75;;;794.50;1561.60;;;;;;5049207;28;20060;-82
2021/07/09 08:21:47;;;;;;;11.80;7.43;;;794.50;1561.60;;;;;;5057411;28;20080;-85
2021/07/09 08:24:14;;;;;;;9.93;7.00;;;819.50;1510.40;;;;;;5055882;28;20464;-84
2021/07/09 08:26:40;;;;;;;11.18;8.00;;;819.20;1510.40;;;;;;5055965;28;20020;-79
2021/07/09 08:29:06;;;;;;;14.30;7.65;;;819.30;1510.40;;;;;;5054783;28;20036;-77
2021/07/09 08:31:32;;;;;;;11.02;7.25;;;819.60;1510.40;;;;;;5045169;28;20544;-84
2021/07/09 08:33:57;;;;;;;9.57;7.43;;;819.60;1510.40;;;;;;5043265;28;20035;-83
2021/07/09 08:36:24;;;;;;;9.00;7.07;;;819.70;1484.80;;;;;;5040596;28;20025;-80
2021/07/09 08:38:51;;;;;;;8.52;7.30;;;819.70;1484.80;;;;;;5046730;28;20037;-80
2021/07/09 08:41:17;;;;;;;11.95;7.10;;;819.70;1459.20;;;;;;5039540;28;20029;-78
2021/07/09 08:43:43;;;;;;;8.40;7.43;;;819.70;1536.00;;;;;;5054625;28;20496;-77
2021/07/09 08:46:09;;;;;;;12.50;7.10;;;819.80;1459.20;;;;;;5054088;28;20032;-79
2021/07/09 08:48:40;;;;;;;8.20;6.50;;;819.90;1459.20;;;;;;5054405;28;20036;-81
2021/07/09 08:51:07;;;;;;;10.10;7.30;;;820.10;1459.20;;;;;;5054016;28;20072;-82
2021/07/09 08:53:33;;;;;;;11.05;8.98;;;844.80;1510.40;;;;;;5054211;28;20025;-80
2021/07/09 08:55:59;;;;;;;10.70;8.32;;;844.90;1484.80;;;;;;5054090;28;20560;-81
2021/07/09 08:58:25;;;;;;;8.63;7.70;;;845.00;1459.20;;;;;;5051969;28;20036;-85
2021/07/09 09:00:51;;;;;;;9.07;7.63;;;845.20;1484.80;;;;;;5053984;28;20025;-83
2021/07/09 09:03:24;;;;;;;9.07;6.55;;;845.20;1433.60;;;;;;5034714;28;20025;-79
2021/07/09 09:05:51;;;;;;;11.80;7.55;;;845.20;1433.60;;;;;;5035683;28;20025;-84
2021/07/09 09:08:21;;;;;;;9.35;7.60;;;845.20;1433.60;;;;;;5034797;28;20033;-82
2021/07/09 09:10:49;;;;;;;10.88;7.63;;;845.20;1408.00;;;;;;5035154;28;20029;-77
2021/07/09 09:13:24;;;;;;;11.55;7.72;;;845.30;1433.60;;;;;;5035720;28;20026;-83
2021/07/09 09:16:10;;;;;;;9.75;6.43;;;845.40;1408.00;;;;;;5034348;28;20057;-77
2021/07/09 09:18:38;;;;;;;7.70;6.18;;;845.40;1382.40;;;;;;5037408;28;20038;-87
2021/07/09 09:21:21;;;;;;;8.63;7.10;;;845.60;1382.40;;;;;;5043734;28;20028;-79
2021/07/09 09:23:52;;;;;;;7.22;6.55;;;845.70;1382.40;;;;;;5047330;28;20116;-79
2021/07/09 09:26:42;;;;;;;8.77;7.22;;;845.70;1356.80;;;;;;5034184;28;20134;-77
2021/07/09 09:29:12;;;;;;;7.78;6.47;;;870.50;1382.40;;;;;;5034344;28;20025;-78
2021/07/09 09:31:40;;;;;;;12.70;7.68;;;870.50;1408.00;;;;;;5034082;28;20572;-83
2021/07/09 09:34:06;;;;;;;10.13;6.50;;;870.80;1382.40;;;;;;5034019;28;20543;-80
2021/07/09 09:36:32;;;;;;;6.95;6.20;;;870.80;1382.40;;;;;;5033056;28;20124;-78
2021/07/09 09:39:02;;;;;;;7.68;6.85;;;870.90;1331.20;;;;;;5033782;28;20378;-79
2021/07/09 09:41:29;;;;;;;7.90;6.57;;;871.00;1331.20;;;;;;5034319;28;20108;-82
2021/07/09 09:44:21;;;;;;;9.68;6.35;;;871.00;1331.20;;;;;;5036907;28;20021;-78
2021/07/09 09:46:47;;;;;;;8.18;6.82;;;871.00;1305.60;;;;;;5052810;28;20090;-78
2021/07/09 09:49:16;;;;;;;10.05;7.20;;;871.00;1331.20;;;;;;5053450;28;20111;-78
2021/07/09 09:51:42;;;;;;;8.55;7.72;;;871.10;1331.20;;;;;;5051930;28;20053;-79
2021/07/09 09:54:09;;;;;;;9.90;7.30;;;871.20;1331.20;;;;;;5047701;28;20515;-87
2021/07/09 09:56:46;;;;;;;10.05;7.22;;;896.00;1331.20;;;;;;5053978;28;20033;-79
2021/07/09 09:59:20;;;;;;;10.50;6.93;;;896.10;1280.00;;;;;;5050364;28;20014;-81
2021/07/09 10:01:52;;;;;;;9.13;6.82;;;896.20;1305.60;;;;;;5036780;28;20040;-84
2021/07/09 10:04:18;;;;;;;11.57;6.82;;;896.20;1280.00;;;;;;5058622;28;20029;-83
2021/07/09 10:06:45;;;;;;;9.35;6.88;;;896.20;1280.00;;;;;;5055825;28;20496;-79
2021/07/09 10:09:15;;;;;;;10.48;7.78;;;896.00;1280.00;;;;;;5033275;28;20473;-81
2021/07/09 10:11:41;;;;;;;8.55;6.70;;;896.00;1280.00;;;;;;5036581;28;20033;-82
2021/07/09 10:14:15;;;;;;;8.90;6.50;;;896.00;1280.00;;;;;;5055136;28;20027;-85
2021/07/09 10:16:43;;;;;;;8.70;7.50;;;896.00;1280.00;;;;;;5053081;28;20447;-82
2021/07/09 10:19:11;;;;;;;11.13;6.43;;;896.00;1280.00;;;;;;5051134;28;20017;-80
2021/07/09 10:21:38;;;;;;;10.15;7.35;;;896.20;1280.00;;;;;;5036218;28;20025;-80
2021/07/09 10:24:06;;;;;;;9.10;6.78;;;896.20;1280.00;;;;;;5043349;28;20064;-81
2021/07/09 10:26:38;;;;;;;9.27;6.90;;;896.20;1254.40;;;;;;5052974;28;20388;-83
2021/07/09 10:29:10;;;;;;;8.00;7.20;;;896.40;1305.60;;;;;;5054191;28;20047;-78
2021/07/09 10:31:41;;;;;;;8.95;7.15;;;896.30;1280.00;;;;;;5046624;28;20120;-79
2021/07/09 10:34:48;;;;;;;7.75;6.53;;;896.40;1280.00;;;;;;5036830;28;20060;-78
2021/07/09 10:37:19;;;;;;;8.63;6.82;;;896.60;1305.60;;;;;;4974517;28;20038;-80
2021/07/09 10:40:03;;;;;;;11.38;6.00;;;896.70;1280.00;;;;;;4966847;28;20382;-82
2021/07/09 10:42:31;;;;;;;9.10;6.40;;;896.90;1254.40;;;;;;4964424;28;20136;-82
2021/07/09 10:45:08;;;;;;;8.90;7.07;;;921.80;1305.60;;;;;;4969854;28;20388;-79
2021/07/09 10:48:03;;;;;;;9.23;6.72;;;921.90;1305.60;;;;;;4976314;28;20026;-82
2021/07/09 10:50:51;;;;;;;9.95;6.63;;;922.00;1228.80;;;;;;4914899;29;20033;-81
2021/07/09 10:53:23;;;;;;;7.53;6.45;;;922.00;1228.80;;;;;;4914344;29;20104;-85
2021/07/09 10:56:00;;;;;;;10.10;7.40;;;922.00;1203.20;;;;;;4898414;29;20040;-80
2021/07/09 10:58:33;;;;;;;12.10;7.28;;;922.00;1254.40;;;;;;4914824;29;20555;-80
2021/07/09 11:01:05;;;;;;;8.82;7.35;;;922.10;1254.40;;;;;;4912669;29;20062;-81
2021/07/09 11:03:33;;;;;;;9.95;7.40;;;922.20;1228.80;;;;;;4917102;29;20028;-80
2021/07/09 11:06:14;;;;;;;8.13;7.05;;;922.10;1177.60;;;;;;4915820;29;20531;-82
2021/07/09 11:08:53;;;;;;;9.30;7.97;;;922.20;1228.80;;;;;;4966949;28;20046;-79
2021/07/09 11:11:43;;;;;;;8.95;6.85;;;922.50;1203.20;;;;;;4977477;28;20031;-81
2021/07/09 11:14:28;;;;;;;8.43;6.82;;;947.20;1177.60;;;;;;4958052;28;20078;-79
2021/07/09 11:17:00;;;;;;;8.85;7.07;;;947.30;1177.60;;;;;;4975147;28;20037;-81
2021/07/09 11:19:33;;;;;;;13.13;7.28;;;947.50;1152.00;;;;;;4980418;28;20050;-78
2021/07/09 11:22:31;;;;;;;11.77;9.07;;;947.70;1152.00;;;;;;4973431;28;20445;-81
2021/07/09 11:25:05;;;;;;;9.18;6.63;;;947.80;1126.40;;;;;;4969631;28;20038;-78
2021/07/09 11:27:32;;;;;;;9.98;7.82;;;947.60;1100.80;;;;;;5020472;28;20104;-81
2021/07/09 11:30:01;;;;;;;8.98;7.82;;;947.70;1100.80;;;;;;5049790;28;20029;-79
2021/07/09 11:32:27;;;;;;;8.52;7.53;;;947.60;1126.40;;;;;;5053326;28;20029;-80
2021/07/09 11:34:55;;;;;;;10.32;7.30;;;947.80;1100.80;;;;;;5048691;28;20090;-78
2021/07/09 11:37:25;;;;;;;10.57;8.15;;;947.80;1100.80;;;;;;5051737;28;20029;-76
2021/07/09 11:39:59;;;;;;;8.82;7.30;;;947.90;1100.80;;;;;;5053482;28;20017;-81
2021/07/09 11:42:32;;;;;;;9.27;7.57;;;948.00;1100.80;;;;;;5051863;28;20052;-81
2021/07/09 11:45:09;;;;;;;12.60;8.48;;;947.70;1100.80;;;;;;5051789;28;20094;-77
2021/07/09 11:47:37;;;;;;;8.88;7.03;;;947.80;1100.80;;;;;;5051721;28;20032;-80
2021/07/09 11:50:17;;;;;;;7.70;6.82;;;947.90;1100.80;;;;;;5051934;28;20025;-79
2021/07/09 11:52:51;;;;;;;8.45;7.43;;;948.00;1100.80;;;;;;5051100;28;20140;-76
2021/07/09 11:55:26;;;;;;;9.73;8.73;;;972.80;1152.00;;;;;;5051284;28;20029;-77
2021/07/09 11:57:52;;;;;;;13.45;8.38;;;972.90;1152.00;;;;;;5052737;28;20055;-76
2021/07/09 12:00:20;;;;;;;8.65;6.78;;;973.20;1126.40;;;;;;5054098;28;20028;-79
2021/07/09 12:02:47;;;;;;;10.10;7.22;;;973.30;1100.80;;;;;;5055075;28;20053;-77
2021/07/09 12:05:18;;;;;;;8.30;7.57;;;973.50;1100.80;;;;;;5055569;28;20021;-80
2021/07/09 12:07:45;;;;;;;8.80;6.88;;;973.50;1100.80;;;;;;5056130;28;20120;-79
2021/07/09 12:10:14;;;;;;;8.30;7.40;;;973.50;1049.60;;;;;;5055512;28;20105;-79